Terminal Aerodrome Forecast
Issued by NWS

Current Version | Previous Version | Graphics & Text | Print | Product List | Glossary On
Versions: 1 2 3 4 5 6 7 8 9 10 11 12 13 14 15 16 17 18 19 20 21 22 23 24 25 26 27
000
FTUS41 KRNK 172046 AAA
TAFLWB
TAF AMD
KLWB 172046Z 1721/1818 18004KT 6SM -SHRA BR VCTS BKN035CB
      TEMPO 1722/1802 1SM +TSRA SCT005 OVC016CB
     FM180400 00000KT 2SM -SHRA BR BKN004 OVC010
     FM181000 04003KT 1SM -RA BR OVC003
     FM181400 08003KT 4SM -RA BR OVC007=

USA.gov is the U.S. government's official web portal to all federal, state and local government web resources and services.